createdAt,value
2023-05-20T00:00:28.234Z,1.55
2023-05-20T00:02:54.733Z,1.38
2023-05-20T00:05:21.229Z,1.50
2023-05-20T00:07:47.714Z,1.40
2023-05-20T00:10:16.624Z,1.42
2023-05-20T00:12:43.106Z,1.88
2023-05-20T00:15:13.869Z,1.40
2023-05-20T00:17:40.418Z,1.38
2023-05-20T00:20:08.151Z,1.42
2023-05-20T00:22:35.392Z,1.50
2023-05-20T00:25:01.794Z,1.58
2023-05-20T00:27:28.284Z,1.23
2023-05-20T00:29:54.888Z,1.83
2023-05-20T00:32:21.420Z,1.20
2023-05-20T00:35:00.718Z,1.40
2023-05-20T00:37:32.044Z,1.30
2023-05-20T00:39:58.537Z,1.50
2023-05-20T00:42:28.725Z,1.40
2023-05-20T00:45:00.715Z,1.45
2023-05-20T00:47:32.137Z,1.50
2023-05-20T00:49:59.988Z,1.25
2023-05-20T00:52:29.546Z,1.75
2023-05-20T00:55:02.133Z,1.95
2023-05-20T00:57:28.775Z,1.30
2023-05-20T00:59:55.628Z,1.65
2023-05-20T01:02:23.824Z,1.35
2023-05-20T01:04:50.578Z,2.17
2023-05-20T01:07:19.134Z,1.42
2023-05-20T01:09:45.843Z,1.15
2023-05-20T01:12:20.761Z,1.42
2023-05-20T01:14:56.537Z,1.80
2023-05-20T01:17:27.157Z,1.55
2023-05-20T01:19:55.264Z,1.38
2023-05-20T01:22:27.575Z,1.55
2023-05-20T01:24:54.165Z,1.40
2023-05-20T01:27:25.703Z,1.40
2023-05-20T01:29:53.268Z,1.52
2023-05-20T01:32:23.235Z,1.20
2023-05-20T01:34:51.395Z,1.48
2023-05-20T01:37:19.825Z,1.65
2023-05-20T01:39:49.367Z,1.98
2023-05-20T01:42:17.107Z,2.08
2023-05-20T01:44:43.912Z,1.50
2023-05-20T01:47:10.682Z,1.40
2023-05-20T01:49:37.115Z,1.55
2023-05-20T01:52:05.026Z,2.00
2023-05-20T01:54:31.508Z,1.73
2023-05-20T01:57:00.430Z,2.30
2023-05-20T01:59:29.325Z,1.40
2023-05-20T02:02:00.540Z,1.90
2023-05-20T02:04:27.333Z,1.87
2023-05-20T02:06:54.303Z,1.80
2023-05-20T02:09:20.775Z,1.60
2023-05-20T02:11:52.057Z,1.55
2023-05-20T02:14:18.526Z,1.50
2023-05-20T02:16:48.462Z,2.17
2023-05-20T02:19:20.715Z,1.70
2023-05-20T02:21:48.938Z,1.80
2023-05-20T02:24:16.152Z,1.52
2023-05-20T02:26:47.304Z,2.38
2023-05-20T02:29:13.808Z,1.70
2023-05-20T02:31:40.230Z,2.13
2023-05-20T02:34:08.832Z,1.65
2023-05-20T02:36:35.463Z,2.03
2023-05-20T02:39:02.373Z,1.90
2023-05-20T02:41:30.224Z,1.70
2023-05-20T02:43:56.714Z,1.80
2023-05-20T02:46:23.187Z,1.67
2023-05-20T02:49:36.509Z,1.90
2023-05-20T02:52:03.079Z,1.70
2023-05-20T02:54:32.457Z,1.30
2023-05-20T02:56:59.050Z,1.98
2023-05-20T02:59:25.687Z,2.03
2023-05-20T03:01:52.449Z,2.63
2023-05-20T03:04:21.928Z,2.05
2023-05-20T03:06:48.595Z,2.03
2023-05-20T03:09:18.703Z,2.00
2023-05-20T03:11:47.614Z,1.48
2023-05-20T03:14:14.110Z,1.88
2023-05-20T03:16:43.129Z,1.77
2023-05-20T03:19:09.705Z,1.50
2023-05-20T03:21:36.213Z,2.20
2023-05-20T03:24:02.742Z,1.63
2023-05-20T03:26:30.526Z,2.00
2023-05-20T03:28:56.933Z,1.80
2023-05-20T03:31:23.571Z,1.63
2023-05-20T03:33:50.106Z,1.60
2023-05-20T03:36:16.534Z,1.63
2023-05-20T03:38:42.928Z,1.60
2023-05-20T03:41:09.462Z,1.50
2023-05-20T03:43:35.932Z,2.15
2023-05-20T03:46:02.361Z,1.75
2023-05-20T03:48:28.940Z,1.88
2023-05-20T03:50:57.842Z,1.90
2023-05-20T03:53:26.688Z,2.00
2023-05-20T03:55:55.415Z,2.05
2023-05-20T03:58:22.294Z,1.65
2023-05-20T04:00:51.428Z,1.73
2023-05-20T04:03:18.420Z,1.60
2023-05-20T04:05:44.924Z,1.58
2023-05-20T04:08:13.570Z,1.55
2023-05-20T04:10:43.007Z,1.58
2023-05-20T04:13:12.801Z,1.50
2023-05-20T04:15:39.230Z,1.88
2023-05-20T04:18:06.295Z,1.80
2023-05-20T04:20:33.113Z,1.80
2023-05-20T04:22:59.568Z,1.92
2023-05-20T04:25:26.312Z,1.90
2023-05-20T04:27:54.223Z,1.70
2023-05-20T04:30:22.002Z,2.35
2023-05-20T04:32:50.723Z,1.52
2023-05-20T04:35:17.582Z,1.60
2023-05-20T04:37:48.041Z,1.75
2023-05-20T04:40:14.658Z,2.20
2023-05-20T04:42:45.899Z,1.83
2023-05-20T04:45:13.582Z,1.73
2023-05-20T04:47:44.388Z,1.85
2023-05-20T04:50:11.816Z,1.60
2023-05-20T04:52:42.740Z,1.90
2023-05-20T04:55:12.355Z,1.90
2023-05-20T04:57:42.254Z,2.05
2023-05-20T05:00:11.019Z,2.60
2023-05-20T05:02:38.299Z,1.95
2023-05-20T05:05:07.756Z,2.00
2023-05-20T05:07:34.296Z,1.65
2023-05-20T05:10:01.195Z,1.60
2023-05-20T05:12:30.027Z,2.00
2023-05-20T05:14:58.658Z,2.28
2023-05-20T05:17:25.299Z,2.10
2023-05-20T05:19:51.777Z,1.80
2023-05-20T05:22:18.301Z,1.98
2023-05-20T05:24:44.878Z,2.33
2023-05-20T05:27:11.445Z,2.42
2023-05-20T05:29:37.881Z,1.90
2023-05-20T05:32:04.851Z,1.95
2023-05-20T05:34:36.211Z,2.40
2023-05-20T05:37:02.657Z,1.85
2023-05-20T05:39:29.180Z,1.88
2023-05-20T05:41:56.194Z,1.30
2023-05-20T05:44:22.675Z,2.50
2023-05-20T05:46:49.252Z,2.50
2023-05-20T05:49:15.936Z,1.73
2023-05-20T05:51:42.389Z,2.30
2023-05-20T05:54:08.812Z,2.00
2023-05-20T05:56:35.231Z,1.65
2023-05-20T05:59:04.640Z,2.33
2023-05-20T06:01:34.075Z,2.00
2023-05-20T06:04:00.793Z,1.85
2023-05-20T06:06:27.345Z,2.38
2023-05-20T06:08:56.187Z,2.33
2023-05-20T06:11:23.915Z,1.92
2023-05-20T06:13:50.719Z,2.92
2023-05-20T06:16:17.213Z,2.05
2023-05-20T06:18:44.150Z,2.30
2023-05-20T06:21:10.587Z,2.92
2023-05-20T06:23:37.216Z,2.75
2023-05-20T06:26:03.828Z,3.10
2023-05-20T06:28:30.879Z,1.95
2023-05-20T06:31:00.157Z,2.42
2023-05-20T06:33:27.540Z,2.33
2023-05-20T06:35:58.951Z,2.00
2023-05-20T06:38:25.462Z,2.58
2023-05-20T06:40:54.610Z,2.58
2023-05-20T06:43:25.733Z,2.20
2023-05-20T06:45:52.213Z,3.30
2023-05-20T06:48:18.716Z,3.10
2023-05-20T06:50:45.594Z,2.92
2023-05-20T06:53:12.158Z,2.78
2023-05-20T06:55:38.709Z,2.60
2023-05-20T06:58:07.537Z,2.63
2023-05-20T07:00:39.264Z,2.28
2023-05-20T07:03:05.700Z,2.72
2023-05-20T07:05:34.738Z,2.80
2023-05-20T07:08:01.353Z,2.70
2023-05-20T07:10:27.859Z,2.75
2023-05-20T07:12:54.287Z,2.33
2023-05-20T07:15:20.845Z,4.20
2023-05-20T07:17:47.358Z,3.25
2023-05-20T07:20:13.825Z,2.75
2023-05-20T07:22:44.074Z,2.60
2023-05-20T07:25:11.050Z,3.35
2023-05-20T07:27:37.701Z,3.17
2023-05-20T07:30:04.719Z,3.03
2023-05-20T07:32:31.435Z,2.90
2023-05-20T07:34:57.930Z,2.40
2023-05-20T07:37:24.562Z,3.15
2023-05-20T07:39:51.123Z,2.67
2023-05-20T07:42:17.538Z,2.42
2023-05-20T07:44:44.149Z,2.97
2023-05-20T07:47:10.636Z,2.30
2023-05-20T07:49:37.165Z,2.42
2023-05-20T07:52:03.810Z,2.58
2023-05-20T07:54:33.328Z,2.42
2023-05-20T07:57:02.147Z,2.58
2023-05-20T07:59:30.984Z,2.70
2023-05-20T08:01:57.973Z,2.35
2023-05-20T08:04:27.722Z,2.47
2023-05-20T08:06:55.331Z,2.60
2023-05-20T08:09:21.795Z,2.33
2023-05-20T08:11:48.236Z,2.72
2023-05-20T08:14:17.126Z,2.40
2023-05-20T08:16:46.455Z,3.17
2023-05-20T08:19:15.323Z,2.95
2023-05-20T08:21:42.497Z,3.13
2023-05-20T08:24:08.910Z,2.42
2023-05-20T08:26:35.402Z,2.60
2023-05-20T08:29:01.909Z,2.60
2023-05-20T08:31:31.003Z,2.60
2023-05-20T08:33:57.801Z,2.30
2023-05-20T08:36:24.756Z,2.28
2023-05-20T08:38:53.941Z,2.33
2023-05-20T08:41:22.374Z,2.25
2023-05-20T08:43:50.523Z,3.38
2023-05-20T08:46:21.952Z,2.05
2023-05-20T08:48:48.618Z,2.72
2023-05-20T08:51:17.634Z,3.25
2023-05-20T08:53:44.667Z,2.80
2023-05-20T08:56:12.837Z,3.00
2023-05-20T08:58:39.401Z,2.70
2023-05-20T09:01:07.752Z,2.40
2023-05-20T09:03:34.494Z,2.75
2023-05-20T09:06:09.868Z,2.65
2023-05-20T09:08:39.486Z,2.85
2023-05-20T09:11:06.257Z,2.63
2023-05-20T09:13:32.865Z,2.60
2023-05-20T09:16:05.468Z,2.60
2023-05-20T09:18:33.080Z,2.97
2023-05-20T09:21:07.039Z,2.78
2023-05-20T09:23:33.533Z,2.63
2023-05-20T09:26:02.368Z,2.33
2023-05-20T09:28:28.819Z,2.38
2023-05-20T09:30:59.842Z,2.78
2023-05-20T09:33:31.845Z,2.40
2023-05-20T09:36:07.407Z,2.45
2023-05-20T09:38:37.932Z,3.08
2023-05-20T09:41:12.395Z,2.60
2023-05-20T09:43:43.721Z,2.65
2023-05-20T09:46:10.795Z,2.80
2023-05-20T09:48:39.675Z,2.90
2023-05-20T09:51:07.823Z,2.40
2023-05-20T09:53:37.314Z,3.03
2023-05-20T09:56:04.103Z,2.50
2023-05-20T09:58:31.652Z,2.13
2023-05-20T10:00:58.291Z,2.30
2023-05-20T10:03:27.963Z,2.63
2023-05-20T10:06:17.532Z,2.55
2023-05-20T10:09:05.900Z,2.50
2023-05-20T10:12:04.078Z,2.08
2023-05-20T10:14:55.640Z,2.67
2023-05-20T10:17:25.308Z,1.80
2023-05-20T10:19:58.912Z,2.67
2023-05-20T10:22:29.838Z,2.67
2023-05-20T10:25:01.244Z,2.13
2023-05-20T10:29:57.510Z,2.45
2023-05-20T10:32:33.055Z,2.22
2023-05-20T10:35:02.068Z,2.67
2023-05-20T10:37:31.162Z,2.55
2023-05-20T10:40:11.670Z,2.53
2023-05-20T10:42:38.750Z,2.53
2023-05-20T10:45:06.754Z,2.80
2023-05-20T10:47:33.592Z,2.47
2023-05-20T10:50:02.035Z,2.17
2023-05-20T10:52:33.007Z,2.40
2023-05-20T10:55:01.012Z,2.70
2023-05-20T10:57:31.027Z,2.28
2023-05-20T10:59:57.865Z,2.78
2023-05-20T11:02:27.157Z,2.63
2023-05-20T11:04:56.211Z,2.50
2023-05-20T11:07:29.691Z,2.42
2023-05-20T11:09:56.838Z,2.75
2023-05-20T11:12:24.166Z,2.08
2023-05-20T11:14:51.626Z,2.40
2023-05-20T11:17:20.786Z,2.53
2023-05-20T11:19:48.391Z,2.30
2023-05-20T11:22:15.148Z,3.10
2023-05-20T11:24:41.770Z,2.72
2023-05-20T11:27:08.288Z,2.60
2023-05-20T11:29:35.246Z,5.05
2023-05-20T11:32:02.163Z,5.50
2023-05-20T11:34:36.423Z,5.72
2023-05-20T11:37:07.968Z,6.20
2023-05-20T11:39:34.626Z,7.40
2023-05-20T11:42:01.134Z,4.13
2023-05-20T11:44:27.554Z,4.45
2023-05-20T11:47:01.414Z,6.13
2023-05-20T11:49:28.512Z,4.50
2023-05-20T11:51:54.944Z,3.40
2023-05-20T11:54:23.397Z,4.18
2023-05-20T11:56:49.924Z,3.15
2023-05-20T11:59:18.937Z,2.80
2023-05-20T12:01:45.751Z,2.85
2023-05-20T12:04:16.415Z,2.50
2023-05-20T12:06:44.097Z,2.85
2023-05-20T12:09:11.110Z,2.85
2023-05-20T12:11:40.678Z,2.45
2023-05-20T12:14:08.053Z,2.80
2023-05-20T12:16:36.027Z,2.60
2023-05-20T12:19:02.999Z,2.95
2023-05-20T12:21:30.025Z,2.83
2023-05-20T12:23:58.005Z,5.43
2023-05-20T12:26:28.028Z,3.33
2023-05-20T12:29:00.468Z,2.58
2023-05-20T12:31:27.007Z,2.92
2023-05-20T12:33:53.451Z,2.67
2023-05-20T12:36:20.039Z,3.30
2023-05-20T12:38:48.815Z,2.67
2023-05-20T12:41:15.440Z,2.70
2023-05-20T12:43:41.909Z,2.97
2023-05-20T12:46:08.603Z,2.70
2023-05-20T12:48:35.136Z,3.10
2023-05-20T12:51:01.652Z,2.47
2023-05-20T12:53:28.147Z,2.72
2023-05-20T12:55:54.723Z,3.28
2023-05-20T12:58:21.373Z,3.15
2023-05-20T13:00:47.901Z,3.42
2023-05-20T13:03:14.677Z,3.97
2023-05-20T13:05:43.921Z,3.05
2023-05-20T13:08:12.495Z,2.75
2023-05-20T13:10:41.574Z,2.47
2023-05-20T13:13:10.686Z,3.03
2023-05-20T13:15:37.110Z,2.90
2023-05-20T13:18:10.441Z,2.78
2023-05-20T13:20:37.325Z,2.70
2023-05-20T13:23:04.084Z,3.17
2023-05-20T13:25:31.785Z,2.97
2023-05-20T13:27:58.447Z,3.00
2023-05-20T13:30:24.983Z,3.13
2023-05-20T13:32:56.634Z,3.28
2023-05-20T13:35:23.114Z,3.20
2023-05-20T13:37:49.555Z,3.20
2023-05-20T13:40:16.051Z,3.30
2023-05-20T13:42:42.588Z,3.17
2023-05-20T13:45:09.403Z,2.97
2023-05-20T13:47:36.234Z,3.05
2023-05-20T13:50:04.922Z,3.10
2023-05-20T13:52:31.307Z,2.80
2023-05-20T13:54:57.807Z,3.42
2023-05-20T13:57:26.631Z,3.30
2023-05-20T13:59:53.022Z,3.17
2023-05-20T14:02:19.597Z,3.17
2023-05-20T14:04:47.099Z,2.63
2023-05-20T14:07:13.855Z,3.58
2023-05-20T14:09:40.308Z,3.60
2023-05-20T14:12:09.351Z,3.50
2023-05-20T14:14:35.952Z,2.85
2023-05-20T14:17:02.458Z,3.40
2023-05-20T14:19:31.198Z,3.35
2023-05-20T14:22:01.019Z,2.72
2023-05-20T14:24:30.345Z,2.88
2023-05-20T14:26:59.451Z,3.38
2023-05-20T14:29:25.910Z,4.82
2023-05-20T14:31:52.443Z,3.45
2023-05-20T14:34:18.998Z,3.10
2023-05-20T14:36:45.579Z,3.33
2023-05-20T14:39:15.152Z,3.00
2023-05-20T14:41:41.648Z,3.10
2023-05-20T14:44:08.076Z,3.47
2023-05-20T14:46:34.909Z,3.70
2023-05-20T14:49:01.414Z,3.35
2023-05-20T14:51:27.874Z,3.45
2023-05-20T14:53:54.403Z,3.55
2023-05-20T14:56:24.020Z,3.45
2023-05-20T14:58:50.446Z,3.70
2023-05-20T15:01:17.698Z,3.13
2023-05-20T15:03:44.234Z,3.20
2023-05-20T15:06:10.836Z,3.88
2023-05-20T15:08:39.737Z,3.67
2023-05-20T15:11:06.205Z,3.08
2023-05-20T15:13:32.683Z,3.95
2023-05-20T15:16:01.572Z,3.58
2023-05-20T15:18:28.013Z,3.92
2023-05-20T15:20:54.543Z,3.58
2023-05-20T15:23:21.554Z,3.97
2023-05-20T15:25:50.195Z,3.78
2023-05-20T15:28:19.484Z,3.75
2023-05-20T15:30:55.702Z,3.35
2023-05-20T15:33:22.896Z,4.20
2023-05-20T15:35:49.440Z,3.42
2023-05-20T15:38:18.283Z,4.20
2023-05-20T15:40:44.793Z,4.32
2023-05-20T15:43:11.236Z,3.75
2023-05-20T15:45:37.816Z,4.10
2023-05-20T15:48:04.524Z,4.00
2023-05-20T15:50:30.979Z,4.00
2023-05-20T15:52:57.551Z,4.40
2023-05-20T15:55:24.104Z,3.75
2023-05-20T15:57:55.759Z,3.63
2023-05-20T16:00:22.778Z,4.03
2023-05-20T16:02:49.453Z,5.10
2023-05-20T16:05:16.210Z,4.15
2023-05-20T16:07:42.850Z,4.13
2023-05-20T16:10:10.082Z,4.25
2023-05-20T16:12:36.518Z,4.75
2023-05-20T16:15:03.265Z,4.55
2023-05-20T16:17:32.497Z,3.83
2023-05-20T16:19:59.046Z,4.07
2023-05-20T16:22:25.523Z,4.43
2023-05-20T16:24:54.389Z,4.10
2023-05-20T16:27:23.271Z,4.95
2023-05-20T16:29:50.565Z,4.78
2023-05-20T16:32:17.284Z,4.95
2023-05-20T16:34:43.676Z,4.68
2023-05-20T16:37:15.936Z,4.32
2023-05-20T16:39:42.398Z,4.82
2023-05-20T16:42:09.212Z,5.13
2023-05-20T16:44:38.697Z,4.57
2023-05-20T16:47:11.624Z,4.38
2023-05-20T16:49:38.144Z,5.05
2023-05-20T16:52:05.057Z,4.43
2023-05-20T16:54:32.620Z,4.28
2023-05-20T16:56:59.133Z,4.47
2023-05-20T16:59:28.492Z,5.00
2023-05-20T17:01:54.904Z,5.05
2023-05-20T17:04:21.456Z,5.18
2023-05-20T17:06:50.448Z,5.28
2023-05-20T17:09:16.853Z,4.63
2023-05-20T17:11:43.746Z,5.90
2023-05-20T17:14:10.325Z,5.07
2023-05-20T17:16:36.852Z,5.75
2023-05-20T17:19:03.389Z,5.10
2023-05-20T17:21:32.561Z,5.60
2023-05-20T17:23:59.082Z,6.25
2023-05-20T17:26:25.917Z,6.03
2023-05-20T17:28:52.548Z,5.57
2023-05-20T17:31:19.140Z,5.50
2023-05-20T17:33:48.083Z,5.65
2023-05-20T17:36:16.438Z,5.97
2023-05-20T17:38:43.200Z,5.97
2023-05-20T17:41:09.641Z,5.97
2023-05-20T17:43:38.243Z,6.45
2023-05-20T17:46:04.918Z,5.40
2023-05-20T17:48:32.901Z,5.97
2023-05-20T17:50:59.385Z,5.72
2023-05-20T17:53:26.004Z,6.20
2023-05-20T17:55:53.121Z,5.82
2023-05-20T17:58:24.686Z,6.35
2023-05-20T18:00:51.902Z,6.55
2023-05-20T18:03:19.174Z,6.45
2023-05-20T18:05:46.538Z,5.70
2023-05-20T18:08:13.011Z,6.07
2023-05-20T18:10:39.563Z,5.85
2023-05-20T18:13:06.416Z,6.38
2023-05-20T18:15:32.853Z,6.93
2023-05-20T18:17:59.376Z,5.55
2023-05-20T18:20:25.871Z,6.53
2023-05-20T18:22:58.127Z,6.95
2023-05-20T18:25:25.798Z,7.18
2023-05-20T18:27:52.537Z,6.20
2023-05-20T18:30:19.105Z,6.60
2023-05-20T18:32:45.544Z,6.25
2023-05-20T18:35:12.091Z,7.40
2023-05-20T18:37:38.614Z,6.90
2023-05-20T18:40:08.289Z,6.55
2023-05-20T18:42:34.808Z,5.72
2023-05-20T18:45:01.468Z,6.18
2023-05-20T18:47:28.262Z,6.63
2023-05-20T18:49:55.778Z,6.47
2023-05-20T18:52:22.190Z,6.45
2023-05-20T18:54:48.644Z,7.43
2023-05-20T18:57:15.442Z,6.82
2023-05-20T18:59:41.977Z,6.30
2023-05-20T19:02:10.760Z,7.32
2023-05-20T19:04:37.284Z,6.88
2023-05-20T19:07:06.924Z,7.20
2023-05-20T19:09:33.308Z,6.78
2023-05-20T19:11:59.806Z,6.82
2023-05-20T19:14:31.307Z,6.65
2023-05-20T19:17:01.419Z,6.78
2023-05-20T19:19:28.338Z,7.05
2023-05-20T19:21:55.016Z,7.05
2023-05-20T19:24:21.480Z,6.93
2023-05-20T19:26:47.918Z,6.63
2023-05-20T19:29:15.360Z,7.20
2023-05-20T19:31:46.606Z,7.63
2023-05-20T19:34:13.255Z,6.97
2023-05-20T19:36:42.560Z,7.28
2023-05-20T19:39:13.223Z,7.70
2023-05-20T19:41:40.255Z,8.07
2023-05-20T19:44:08.425Z,7.10
2023-05-20T19:46:38.294Z,7.20
2023-05-20T19:49:07.521Z,7.13
2023-05-20T19:51:34.661Z,7.22
2023-05-20T19:54:01.592Z,7.45
2023-05-20T19:56:28.060Z,7.60
2023-05-20T19:58:54.476Z,8.05
2023-05-20T20:01:21.530Z,7.10
2023-05-20T20:03:48.015Z,6.97
2023-05-20T20:06:14.436Z,7.40
2023-05-20T20:08:41.578Z,7.45
2023-05-20T20:11:09.273Z,7.50
2023-05-20T20:13:35.798Z,8.48
2023-05-20T20:16:02.875Z,8.73
2023-05-20T20:18:29.581Z,7.05
2023-05-20T20:20:59.595Z,7.95
2023-05-20T20:23:26.808Z,7.53
2023-05-20T20:25:53.205Z,7.75
2023-05-20T20:28:19.646Z,7.85
2023-05-20T20:30:46.264Z,8.30
2023-05-20T20:33:13.325Z,7.55
2023-05-20T20:35:39.816Z,8.45
2023-05-20T20:38:09.679Z,8.05
2023-05-20T20:40:42.493Z,8.45
2023-05-20T20:43:10.992Z,7.85
2023-05-20T20:45:37.619Z,7.93
2023-05-20T20:48:08.038Z,8.00
2023-05-20T20:50:35.653Z,7.97
2023-05-20T20:53:02.609Z,8.75
2023-05-20T20:55:32.173Z,7.90
2023-05-20T20:58:02.488Z,8.25
2023-05-20T21:00:29.414Z,8.52
2023-05-20T21:02:56.267Z,9.13
2023-05-20T21:05:26.462Z,9.70
2023-05-20T21:07:59.247Z,8.60
2023-05-20T21:10:29.712Z,8.60
2023-05-20T21:13:02.029Z,8.73
2023-05-20T21:15:28.480Z,8.05
2023-05-20T21:17:55.031Z,8.68
2023-05-20T21:20:21.968Z,9.80
2023-05-20T21:22:53.101Z,9.07
2023-05-20T21:25:21.987Z,8.63
2023-05-20T21:27:48.540Z,9.40
2023-05-20T21:30:16.362Z,9.00
2023-05-20T21:32:42.913Z,9.52
2023-05-20T21:35:09.701Z,9.48
2023-05-20T21:37:36.184Z,9.40
2023-05-20T21:40:02.866Z,8.80
2023-05-20T21:42:29.380Z,9.65
2023-05-20T21:44:55.864Z,9.52
2023-05-20T21:47:22.292Z,10.63
2023-05-20T21:49:51.400Z,10.18
2023-05-20T21:52:17.823Z,9.98
2023-05-20T21:54:44.289Z,10.35
2023-05-20T21:57:10.850Z,9.40
2023-05-20T21:59:37.261Z,8.50
2023-05-20T22:02:06.177Z,9.77
2023-05-20T22:04:33.426Z,9.77
2023-05-20T22:07:02.200Z,9.60
2023-05-20T22:09:28.899Z,10.20
2023-05-20T22:11:56.185Z,8.05
2023-05-20T22:14:23.576Z,9.20
2023-05-20T22:16:50.131Z,8.80
2023-05-20T22:19:19.605Z,9.52
2023-05-20T22:21:50.856Z,9.25
2023-05-20T22:24:18.068Z,9.93
2023-05-20T22:26:44.678Z,9.10
2023-05-20T22:29:11.127Z,10.32
2023-05-20T22:31:38.082Z,10.02
2023-05-20T22:34:09.388Z,8.90
2023-05-20T22:36:36.360Z,10.57
2023-05-20T22:39:04.405Z,10.07
2023-05-20T22:41:30.969Z,9.57
2023-05-20T22:43:57.429Z,10.10
2023-05-20T22:46:24.671Z,8.73
2023-05-20T22:48:53.029Z,9.25
2023-05-20T22:51:22.326Z,9.57
2023-05-20T22:53:52.236Z,9.98
2023-05-20T22:56:23.761Z,10.88
2023-05-20T22:58:50.340Z,9.98
2023-05-20T23:01:17.188Z,10.70
2023-05-20T23:03:45.179Z,11.13
2023-05-20T23:06:14.032Z,10.32
2023-05-20T23:08:42.840Z,8.93
2023-05-20T23:11:09.489Z,9.38
2023-05-20T23:13:36.025Z,8.35
2023-05-20T23:16:02.445Z,9.55
2023-05-20T23:18:28.857Z,8.43
2023-05-20T23:20:58.092Z,8.23
2023-05-20T23:23:30.372Z,9.20
2023-05-20T23:25:57.617Z,9.68
2023-05-20T23:28:24.088Z,10.57
2023-05-20T23:30:52.851Z,8.57
2023-05-20T23:33:24.776Z,11.18
2023-05-20T23:35:52.773Z,9.85
2023-05-20T23:38:24.258Z,9.75
2023-05-20T23:40:50.847Z,10.07
2023-05-20T23:43:17.335Z,9.45
2023-05-20T23:45:43.882Z,10.27
2023-05-20T23:48:13.118Z,9.55
2023-05-20T23:50:40.595Z,9.00
2023-05-20T23:53:07.127Z,9.32
2023-05-20T23:55:33.855Z,9.30
2023-05-20T23:58:00.748Z,10.05
